createdAt,value
2018-04-01T00:00:25.732Z,43.20
2018-04-01T00:05:27.936Z,43.30
2018-04-01T00:10:29.980Z,43.30
2018-04-01T00:15:32.003Z,43.50
2018-04-01T00:20:34.205Z,43.40
2018-04-01T00:25:38.152Z,43.60
2018-04-01T00:30:40.197Z,43.60
2018-04-01T00:35:42.322Z,43.60
2018-04-01T00:40:44.405Z,43.60
2018-04-01T00:45:47.261Z,43.80
2018-04-01T00:50:49.809Z,43.80
2018-04-01T00:55:52.126Z,43.90
2018-04-01T01:00:54.581Z,44.00
2018-04-01T01:05:56.925Z,44.10
2018-04-01T01:11:01.504Z,44.20
2018-04-01T01:16:03.920Z,44.20
2018-04-01T01:21:06.020Z,44.30
2018-04-01T01:26:08.134Z,44.40
2018-04-01T01:31:10.217Z,44.40
2018-04-01T01:36:12.317Z,44.40
2018-04-01T01:41:14.369Z,44.60
2018-04-01T01:46:16.454Z,44.60
2018-04-01T01:51:18.691Z,44.70
2018-04-01T01:56:21.180Z,44.70
2018-04-01T02:01:23.727Z,44.70
2018-04-01T02:06:25.972Z,44.70
2018-04-01T02:11:29.170Z,44.90
2018-04-01T02:16:32.015Z,44.90
2018-04-01T02:21:34.252Z,45.00
2018-04-01T02:26:36.795Z,45.00
2018-04-01T02:31:38.866Z,45.10
2018-04-01T02:36:40.879Z,45.10
2018-04-01T02:41:42.984Z,45.20
2018-04-01T02:46:45.021Z,45.20
2018-04-01T02:51:47.078Z,45.30
2018-04-01T02:56:49.374Z,45.40
2018-04-01T03:01:51.571Z,45.70
2018-04-01T03:06:53.792Z,45.40
2018-04-01T03:11:55.835Z,45.50
2018-04-01T03:16:57.868Z,45.50
2018-04-01T03:22:00.666Z,45.70
2018-04-01T03:27:02.707Z,45.50
2018-04-01T03:32:04.929Z,45.60
2018-04-01T03:37:06.983Z,45.60
2018-04-01T03:42:09.009Z,45.70
2018-04-01T03:47:11.131Z,45.70
2018-04-01T03:52:13.359Z,45.70
2018-04-01T03:57:15.409Z,45.80
2018-04-01T04:02:17.759Z,45.70
2018-04-01T04:07:22.195Z,45.80
2018-04-01T04:12:25.365Z,45.90
2018-04-01T04:17:27.555Z,45.90
2018-04-01T04:22:31.088Z,45.90
2018-04-01T04:27:33.354Z,45.90
2018-04-01T04:32:35.525Z,45.90
2018-04-01T04:37:38.102Z,46.70
2018-04-01T04:42:40.531Z,46.00
2018-04-01T04:47:44.171Z,46.00
2018-04-01T04:52:46.721Z,45.90
2018-04-01T04:57:49.049Z,45.90
2018-04-01T05:02:51.997Z,46.00
2018-04-01T05:07:54.255Z,46.00
2018-04-01T05:12:56.433Z,46.00
2018-04-01T05:17:59.357Z,46.00
2018-04-01T05:23:01.410Z,46.00
2018-04-01T05:28:04.211Z,46.00
2018-04-01T05:33:07.256Z,46.10
2018-04-01T05:38:09.322Z,46.00
2018-04-01T05:43:11.383Z,46.00
2018-04-01T05:48:13.568Z,46.00
2018-04-01T05:53:15.850Z,46.00
2018-04-01T05:58:17.896Z,46.10
2018-04-01T06:03:20.178Z,46.10
2018-04-01T06:08:22.224Z,46.00
2018-04-01T06:13:24.490Z,46.10
2018-04-01T06:18:26.540Z,46.10
2018-04-01T06:23:28.594Z,46.10
2018-04-01T06:28:30.659Z,46.10
2018-04-01T06:33:32.678Z,46.00
2018-04-01T06:38:34.754Z,46.10
2018-04-01T06:43:37.729Z,46.10
2018-04-01T06:48:39.802Z,46.10
2018-04-01T06:53:41.856Z,46.10
2018-04-01T06:58:44.364Z,46.70
2018-04-01T07:03:46.487Z,46.20
2018-04-01T07:08:48.914Z,46.10
2018-04-01T07:13:51.224Z,46.10
2018-04-01T07:18:53.523Z,46.10
2018-04-01T07:23:57.685Z,46.10
2018-04-01T07:29:00.947Z,46.20
2018-04-01T07:34:03.393Z,46.10
2018-04-01T07:39:05.651Z,46.20
2018-04-01T07:44:08.003Z,46.20
2018-04-01T07:49:10.364Z,46.10
2018-04-01T07:54:14.151Z,46.20
2018-04-01T07:59:16.561Z,46.10
2018-04-01T08:04:18.716Z,46.20
2018-04-01T08:09:21.535Z,46.20
2018-04-01T08:14:23.919Z,46.10
2018-04-01T08:19:26.198Z,46.30
2018-04-01T08:24:28.336Z,46.30
2018-04-01T08:29:30.405Z,46.50
2018-04-01T08:34:32.472Z,46.40
2018-04-01T08:39:34.602Z,47.10
2018-04-01T08:44:36.637Z,46.50
2018-04-01T08:49:38.708Z,46.70
2018-04-01T08:54:40.821Z,46.70
2018-04-01T08:59:43.057Z,46.50
2018-04-01T09:04:45.245Z,46.10
2018-04-01T09:09:47.298Z,46.10
2018-04-01T09:14:50.165Z,46.00
2018-04-01T09:19:52.279Z,45.90
2018-04-01T09:24:54.337Z,45.90
2018-04-01T09:29:56.567Z,45.80
2018-04-01T09:35:01.880Z,44.90
2018-04-01T09:40:03.931Z,44.90
2018-04-01T09:45:05.997Z,44.20
2018-04-01T09:50:08.082Z,44.30
2018-04-01T09:55:10.145Z,44.00
2018-04-01T10:00:12.377Z,44.70
2018-04-01T10:05:15.033Z,45.30
2018-04-01T10:10:17.592Z,44.80
2018-04-01T10:15:20.171Z,44.80
2018-04-01T10:20:23.153Z,44.80
2018-04-01T10:25:25.753Z,44.60
2018-04-01T10:30:29.121Z,44.60
2018-04-01T10:35:32.517Z,44.70
2018-04-01T10:40:35.127Z,44.80
2018-04-01T10:45:38.535Z,44.80
2018-04-01T10:50:41.103Z,45.50
2018-04-01T10:55:43.148Z,44.60
2018-04-01T11:00:45.207Z,44.80
2018-04-01T11:05:47.464Z,44.80
2018-04-01T11:10:49.497Z,44.90
2018-04-01T11:15:51.568Z,45.00
2018-04-01T11:20:54.362Z,45.00
2018-04-01T11:25:57.154Z,45.40
2018-04-01T11:30:59.210Z,44.80
2018-04-01T11:36:01.376Z,44.80
2018-04-01T11:41:03.491Z,44.80
2018-04-01T11:46:05.541Z,44.70
2018-04-01T11:51:07.547Z,44.80
2018-04-01T11:56:09.616Z,44.80
2018-04-01T12:01:11.644Z,44.80
2018-04-01T12:06:13.934Z,44.80
2018-04-01T12:11:16.039Z,44.80
2018-04-01T12:16:18.204Z,44.90
2018-04-01T12:21:21.024Z,44.80
2018-04-01T12:26:23.298Z,44.80
2018-04-01T12:31:26.216Z,44.80
2018-04-01T12:36:28.388Z,44.80
2018-04-01T12:41:30.483Z,44.90
2018-04-01T12:46:32.857Z,44.80
2018-04-01T12:51:34.950Z,44.80
2018-04-01T12:56:36.997Z,44.80
2018-04-01T13:01:39.063Z,44.70
2018-04-01T13:06:41.413Z,44.50
2018-04-01T13:11:43.931Z,44.70
2018-04-01T13:16:45.993Z,44.70
2018-04-01T13:21:48.043Z,44.80
2018-04-01T13:26:51.064Z,44.50
2018-04-01T13:31:53.175Z,44.50
2018-04-01T13:36:55.422Z,44.40
2018-04-01T13:41:58.240Z,44.20
2018-04-01T13:47:00.373Z,44.20
2018-04-01T13:52:02.475Z,44.20
2018-04-01T13:57:04.576Z,44.20
2018-04-01T14:02:06.636Z,44.30
2018-04-01T14:07:08.671Z,44.20
2018-04-01T14:12:10.734Z,44.40
2018-04-01T14:17:12.861Z,44.50
2018-04-01T14:22:14.928Z,44.30
2018-04-01T14:27:17.164Z,44.20
2018-04-01T14:32:19.206Z,44.20
2018-04-01T14:37:21.903Z,44.20
2018-04-01T14:42:24.350Z,44.20
2018-04-01T14:47:26.436Z,44.30
2018-04-01T14:52:29.260Z,44.40
2018-04-01T14:57:31.306Z,44.30
2018-04-01T15:02:34.106Z,44.60
2018-04-01T15:07:37.049Z,44.80
2018-04-01T15:12:39.311Z,44.70
2018-04-01T15:17:41.942Z,44.80
2018-04-01T15:22:44.252Z,45.00
2018-04-01T15:27:47.432Z,45.00
2018-04-01T15:32:49.651Z,44.90
2018-04-01T15:37:51.698Z,45.00
2018-04-01T15:42:53.788Z,44.90
2018-04-01T15:47:57.060Z,44.90
2018-04-01T15:52:59.920Z,44.90
2018-04-01T15:58:02.133Z,44.70
2018-04-01T16:03:04.327Z,44.90
2018-04-01T16:08:06.447Z,44.90
2018-04-01T16:13:08.688Z,44.80
2018-04-01T16:18:10.859Z,44.90
2018-04-01T16:23:12.926Z,45.10
2018-04-01T16:28:14.979Z,45.00
2018-04-01T16:33:17.033Z,45.00
2018-04-01T16:38:19.097Z,45.00
2018-04-01T16:43:21.215Z,45.30
2018-04-01T16:48:24.206Z,45.30
2018-04-01T16:53:26.290Z,45.30
2018-04-01T16:58:29.147Z,45.60
2018-04-01T17:03:31.271Z,45.60
2018-04-01T17:08:34.152Z,48.40
2018-04-01T17:13:36.290Z,47.80
2018-04-01T17:18:38.415Z,48.30
2018-04-01T17:23:40.533Z,48.00
2018-04-01T17:28:42.583Z,48.20
2018-04-01T17:33:44.637Z,48.30
2018-04-01T17:38:46.718Z,48.30
2018-04-01T17:43:49.079Z,48.20
2018-04-01T17:48:51.130Z,48.40
2018-04-01T17:53:53.260Z,48.20
2018-04-01T17:58:55.311Z,48.20
2018-04-01T18:03:58.315Z,48.20
2018-04-01T18:09:00.608Z,48.20
2018-04-01T18:14:02.650Z,48.10
2018-04-01T18:19:04.708Z,48.20
2018-04-01T18:24:06.744Z,48.70
2018-04-01T18:29:08.830Z,48.10
2018-04-01T18:34:10.946Z,48.00
2018-04-01T18:39:13.021Z,48.00
2018-04-01T18:44:15.064Z,48.00
2018-04-01T18:49:17.170Z,48.00
2018-04-01T18:54:19.959Z,48.00
2018-04-01T18:59:22.047Z,47.90
2018-04-01T19:04:24.123Z,47.90
2018-04-01T19:09:26.162Z,47.80
2018-04-01T19:14:29.180Z,47.90
2018-04-01T19:19:31.767Z,47.80
2018-04-01T19:24:34.299Z,47.80
2018-04-01T19:29:37.045Z,47.90
2018-04-01T19:34:39.783Z,47.80
2018-04-01T19:39:42.653Z,47.80
2018-04-01T19:44:45.425Z,47.70
2018-04-01T19:49:47.973Z,47.70
2018-04-01T19:54:50.645Z,47.70
2018-04-01T19:59:53.227Z,47.70
2018-04-01T20:04:56.262Z,47.60
2018-04-01T20:09:59.628Z,47.70
2018-04-01T20:15:02.212Z,47.70
2018-04-01T20:20:05.543Z,47.60
2018-04-01T20:25:08.140Z,47.60
2018-04-01T20:30:10.688Z,47.60
2018-04-01T20:35:13.991Z,47.50
2018-04-01T20:40:16.619Z,47.50
2018-04-01T20:45:20.028Z,47.40
2018-04-01T20:50:22.726Z,47.40
2018-04-01T20:55:25.427Z,47.30
2018-04-01T21:00:29.489Z,47.10
2018-04-01T21:05:32.091Z,47.10
2018-04-01T21:10:34.838Z,46.90
2018-04-01T21:15:37.366Z,46.90
2018-04-01T21:20:40.194Z,46.80
2018-04-01T21:25:43.243Z,46.90
2018-04-01T21:30:46.082Z,46.90
2018-04-01T21:35:48.685Z,46.90
2018-04-01T21:40:51.486Z,46.90
2018-04-01T21:45:54.151Z,46.90
2018-04-01T21:50:56.785Z,47.20
2018-04-01T21:55:59.352Z,47.20
2018-04-01T22:01:02.628Z,47.20
2018-04-01T22:06:05.181Z,47.20
2018-04-01T22:11:07.698Z,46.90
2018-04-01T22:16:11.145Z,46.90
2018-04-01T22:21:14.582Z,46.80
2018-04-01T22:26:17.135Z,46.80
2018-04-01T22:31:19.773Z,46.70
2018-04-01T22:36:22.393Z,46.70
2018-04-01T22:41:25.592Z,46.70
2018-04-01T22:46:28.145Z,46.80
2018-04-01T22:51:31.199Z,46.70
2018-04-01T22:56:34.017Z,46.50
2018-04-01T23:01:36.621Z,46.40
2018-04-01T23:06:39.133Z,46.40
2018-04-01T23:11:41.910Z,46.60
2018-04-01T23:16:44.444Z,46.60
2018-04-01T23:21:47.012Z,46.70
2018-04-01T23:26:50.199Z,46.90
2018-04-01T23:31:52.888Z,46.90
2018-04-01T23:36:55.438Z,46.80
2018-04-01T23:41:58.810Z,46.90
2018-04-01T23:47:01.529Z,46.90
2018-04-01T23:52:05.026Z,46.80
2018-04-01T23:57:07.552Z,46.80
